sensor_id;sensor_type;location;lat;lon;timestamp;P1;durP1;ratioP1;P2;durP2;ratioP2
21213;SDS011;10764;50.850;2.904;2024-02-28T00:00:15;434.77;;;396.42;;
21213;SDS011;10764;50.850;2.904;2024-02-28T00:02:42;548.25;;;500.02;;
21213;SDS011;10764;50.850;2.904;2024-02-28T00:05:08;1153.40;;;999.90;;
21213;SDS011;10764;50.850;2.904;2024-02-28T00:07:35;1123.82;;;999.90;;
21213;SDS011;10764;50.850;2.904;2024-02-28T00:10:02;1068.90;;;980.85;;
21213;SDS011;10764;50.850;2.904;2024-02-28T00:12:29;1129.97;;;999.90;;
21213;SDS011;10764;50.850;2.904;2024-02-28T00:14:56;1111.70;;;999.90;;
21213;SDS011;10764;50.850;2.904;2024-02-28T00:17:23;1143.40;;;999.90;;
21213;SDS011;10764;50.850;2.904;2024-02-28T00:19:50;1159.80;;;999.90;;
21213;SDS011;10764;50.850;2.904;2024-02-28T00:22:17;1167.30;;;999.90;;
21213;SDS011;10764;50.850;2.904;2024-02-28T00:24:44;1160.70;;;999.90;;
21213;SDS011;10764;50.850;2.904;2024-02-28T00:27:11;1065.82;;;977.85;;
21213;SDS011;10764;50.850;2.904;2024-02-28T00:29:38;1151.22;;;999.90;;
21213;SDS011;10764;50.850;2.904;2024-02-28T00:32:05;556.87;;;507.07;;
21213;SDS011;10764;50.850;2.904;2024-02-28T00:34:32;1111.32;;;999.78;;
21213;SDS011;10764;50.850;2.904;2024-02-28T00:36:59;1201.88;;;999.90;;
21213;SDS011;10764;50.850;2.904;2024-02-28T00:39:26;1188.60;;;999.90;;
21213;SDS011;10764;50.850;2.904;2024-02-28T00:41:53;1194.63;;;999.90;;
21213;SDS011;10764;50.850;2.904;2024-02-28T00:44:20;1005.78;;;918.25;;
21213;SDS011;10764;50.850;2.904;2024-02-28T00:46:47;1040.10;;;952.78;;
21213;SDS011;10764;50.850;2.904;2024-02-28T00:49:13;876.65;;;802.08;;
21213;SDS011;10764;50.850;2.904;2024-02-28T00:51:40;903.78;;;827.15;;
21213;SDS011;10764;50.850;2.904;2024-02-28T00:54:07;1035.38;;;949.47;;
21213;SDS011;10764;50.850;2.904;2024-02-28T00:56:34;1154.97;;;999.90;;
21213;SDS011;10764;50.850;2.904;2024-02-28T00:59:01;1149.72;;;999.90;;
21213;SDS011;10764;50.850;2.904;2024-02-28T01:01:29;1087.40;;;994.53;;
21213;SDS011;10764;50.850;2.904;2024-02-28T01:03:56;424.92;;;384.20;;
21213;SDS011;10764;50.850;2.904;2024-02-28T01:06:23;1152.90;;;999.90;;
21213;SDS011;10764;50.850;2.904;2024-02-28T01:08:50;1108.55;;;999.90;;
21213;SDS011;10764;50.850;2.904;2024-02-28T01:11:17;1110.30;;;999.90;;
21213;SDS011;10764;50.850;2.904;2024-02-28T01:13:44;1151.00;;;999.90;;
21213;SDS011;10764;50.850;2.904;2024-02-28T01:16:10;1118.20;;;999.90;;
21213;SDS011;10764;50.850;2.904;2024-02-28T01:18:37;1087.10;;;982.30;;
21213;SDS011;10764;50.850;2.904;2024-02-28T01:21:04;336.85;;;307.23;;
21213;SDS011;10764;50.850;2.904;2024-02-28T01:23:31;1147.73;;;999.90;;
21213;SDS011;10764;50.850;2.904;2024-02-28T01:25:58;1149.50;;;999.90;;
21213;SDS011;10764;50.850;2.904;2024-02-28T01:28:25;655.60;;;598.07;;
21213;SDS011;10764;50.850;2.904;2024-02-28T01:30:52;1142.68;;;999.90;;
21213;SDS011;10764;50.850;2.904;2024-02-28T01:33:19;1135.43;;;999.90;;
21213;SDS011;10764;50.850;2.904;2024-02-28T01:35:46;1147.88;;;999.90;;
21213;SDS011;10764;50.850;2.904;2024-02-28T01:38:13;1118.43;;;999.90;;
21213;SDS011;10764;50.850;2.904;2024-02-28T01:40:44;1084.97;;;980.72;;
21213;SDS011;10764;50.850;2.904;2024-02-28T01:43:12;890.28;;;810.97;;
21213;SDS011;10764;50.850;2.904;2024-02-28T01:45:39;1117.32;;;999.90;;
21213;SDS011;10764;50.850;2.904;2024-02-28T01:48:06;1137.10;;;999.90;;
21213;SDS011;10764;50.850;2.904;2024-02-28T01:50:37;1106.40;;;994.93;;
21213;SDS011;10764;50.850;2.904;2024-02-28T01:53:05;1120.38;;;999.90;;
21213;SDS011;10764;50.850;2.904;2024-02-28T01:55:35;1046.78;;;950.15;;
21213;SDS011;10764;50.850;2.904;2024-02-28T01:58:02;1142.70;;;999.90;;
21213;SDS011;10764;50.850;2.904;2024-02-28T02:00:34;1107.30;;;999.90;;
21213;SDS011;10764;50.850;2.904;2024-02-28T02:03:03;1128.80;;;999.90;;
21213;SDS011;10764;50.850;2.904;2024-02-28T02:05:30;1134.00;;;999.90;;
21213;SDS011;10764;50.850;2.904;2024-02-28T02:07:57;1126.10;;;999.90;;
21213;SDS011;10764;50.850;2.904;2024-02-28T02:10:25;1135.30;;;999.90;;
21213;SDS011;10764;50.850;2.904;2024-02-28T02:12:52;1026.63;;;926.42;;
21213;SDS011;10764;50.850;2.904;2024-02-28T02:15:19;979.63;;;884.10;;
21213;SDS011;10764;50.850;2.904;2024-02-28T02:17:46;653.83;;;596.72;;
21213;SDS011;10764;50.850;2.904;2024-02-28T02:20:14;812.85;;;743.67;;
21213;SDS011;10764;50.850;2.904;2024-02-28T02:22:41;803.55;;;734.95;;
21213;SDS011;10764;50.850;2.904;2024-02-28T02:25:08;821.78;;;751.85;;
21213;SDS011;10764;50.850;2.904;2024-02-28T02:27:35;892.57;;;817.23;;
21213;SDS011;10764;50.850;2.904;2024-02-28T02:30:02;770.60;;;704.72;;
21213;SDS011;10764;50.850;2.904;2024-02-28T02:32:30;834.63;;;763.53;;
21213;SDS011;10764;50.850;2.904;2024-02-28T02:34:57;838.13;;;766.83;;
21213;SDS011;10764;50.850;2.904;2024-02-28T02:37:23;833.67;;;762.88;;
21213;SDS011;10764;50.850;2.904;2024-02-28T02:39:51;811.35;;;742.17;;
21213;SDS011;10764;50.850;2.904;2024-02-28T02:42:18;823.97;;;753.95;;
21213;SDS011;10764;50.850;2.904;2024-02-28T02:44:45;880.10;;;805.87;;
21213;SDS011;10764;50.850;2.904;2024-02-28T02:47:12;861.88;;;789.00;;
21213;SDS011;10764;50.850;2.904;2024-02-28T02:49:39;879.90;;;805.73;;
21213;SDS011;10764;50.850;2.904;2024-02-28T02:52:06;822.03;;;752.15;;
21213;SDS011;10764;50.850;2.904;2024-02-28T02:54:33;747.33;;;682.97;;
21213;SDS011;10764;50.850;2.904;2024-02-28T02:57:00;1140.97;;;999.90;;
21213;SDS011;10764;50.850;2.904;2024-02-28T02:59:27;1134.50;;;999.90;;
21213;SDS011;10764;50.850;2.904;2024-02-28T03:01:54;1147.13;;;999.90;;
21213;SDS011;10764;50.850;2.904;2024-02-28T03:04:21;1144.07;;;999.90;;
21213;SDS011;10764;50.850;2.904;2024-02-28T03:06:48;1138.57;;;999.90;;
21213;SDS011;10764;50.850;2.904;2024-02-28T03:09:15;1134.53;;;999.90;;
21213;SDS011;10764;50.850;2.904;2024-02-28T03:11:42;1127.57;;;999.90;;
21213;SDS011;10764;50.850;2.904;2024-02-28T03:14:09;980.95;;;899.97;;
21213;SDS011;10764;50.850;2.904;2024-02-28T03:16:40;971.47;;;889.25;;
21213;SDS011;10764;50.850;2.904;2024-02-28T03:19:09;1135.57;;;999.90;;
21213;SDS011;10764;50.850;2.904;2024-02-28T03:21:36;1129.78;;;999.90;;
21213;SDS011;10764;50.850;2.904;2024-02-28T03:24:03;1120.22;;;999.90;;
21213;SDS011;10764;50.850;2.904;2024-02-28T03:26:30;1128.70;;;999.90;;
21213;SDS011;10764;50.850;2.904;2024-02-28T03:28:57;1104.68;;;999.90;;
21213;SDS011;10764;50.850;2.904;2024-02-28T03:31:25;1135.65;;;999.90;;
21213;SDS011;10764;50.850;2.904;2024-02-28T03:33:52;1128.70;;;999.90;;
21213;SDS011;10764;50.850;2.904;2024-02-28T03:36:19;1132.85;;;999.90;;
21213;SDS011;10764;50.850;2.904;2024-02-28T03:38:46;1141.93;;;999.90;;
21213;SDS011;10764;50.850;2.904;2024-02-28T03:41:13;1133.80;;;999.90;;
21213;SDS011;10764;50.850;2.904;2024-02-28T03:43:40;1139.95;;;999.90;;
21213;SDS011;10764;50.850;2.904;2024-02-28T03:46:07;1102.78;;;999.90;;
21213;SDS011;10764;50.850;2.904;2024-02-28T03:48:34;1110.45;;;999.90;;
21213;SDS011;10764;50.850;2.904;2024-02-28T03:51:01;1133.10;;;999.90;;
21213;SDS011;10764;50.850;2.904;2024-02-28T03:53:28;1160.90;;;999.90;;
21213;SDS011;10764;50.850;2.904;2024-02-28T03:55:54;1105.23;;;999.90;;
21213;SDS011;10764;50.850;2.904;2024-02-28T03:58:21;1104.93;;;999.90;;
21213;SDS011;10764;50.850;2.904;2024-02-28T04:00:48;1123.87;;;999.90;;
21213;SDS011;10764;50.850;2.904;2024-02-28T04:03:15;1156.20;;;999.90;;
21213;SDS011;10764;50.850;2.904;2024-02-28T04:05:43;1175.23;;;999.90;;
21213;SDS011;10764;50.850;2.904;2024-02-28T04:08:09;1173.97;;;999.90;;
21213;SDS011;10764;50.850;2.904;2024-02-28T04:10:36;1170.43;;;999.80;;
21213;SDS011;10764;50.850;2.904;2024-02-28T04:13:03;1168.55;;;994.65;;
21213;SDS011;10764;50.850;2.904;2024-02-28T04:15:30;1174.60;;;999.90;;
21213;SDS011;10764;50.850;2.904;2024-02-28T04:17:57;1124.80;;;997.40;;
21213;SDS011;10764;50.850;2.904;2024-02-28T04:20:24;253.47;;;231.97;;
21213;SDS011;10764;50.850;2.904;2024-02-28T04:22:51;483.83;;;441.83;;
21213;SDS011;10764;50.850;2.904;2024-02-28T04:25:18;1135.88;;;999.90;;
21213;SDS011;10764;50.850;2.904;2024-02-28T04:27:45;1085.78;;;995.20;;
21213;SDS011;10764;50.850;2.904;2024-02-28T04:30:13;710.15;;;648.55;;
21213;SDS011;10764;50.850;2.904;2024-02-28T04:32:41;593.80;;;541.65;;
21213;SDS011;10764;50.850;2.904;2024-02-28T04:35:08;986.72;;;905.70;;
21213;SDS011;10764;50.850;2.904;2024-02-28T04:37:35;534.00;;;487.47;;
21213;SDS011;10764;50.850;2.904;2024-02-28T04:40:03;755.85;;;691.08;;
21213;SDS011;10764;50.850;2.904;2024-02-28T04:42:30;747.53;;;683.50;;
21213;SDS011;10764;50.850;2.904;2024-02-28T04:44:57;829.17;;;758.88;;
21213;SDS011;10764;50.850;2.904;2024-02-28T04:47:24;537.47;;;491.35;;
21213;SDS011;10764;50.850;2.904;2024-02-28T04:50:02;681.20;;;622.15;;
21213;SDS011;10764;50.850;2.904;2024-02-28T04:52:31;801.28;;;732.78;;
21213;SDS011;10764;50.850;2.904;2024-02-28T04:54:59;811.20;;;742.55;;
21213;SDS011;10764;50.850;2.904;2024-02-28T04:57:26;1045.95;;;957.90;;
21213;SDS011;10764;50.850;2.904;2024-02-28T04:59:53;955.47;;;876.40;;
21213;SDS011;10764;50.850;2.904;2024-02-28T05:02:20;1088.07;;;993.90;;
21213;SDS011;10764;50.850;2.904;2024-02-28T05:04:48;999.63;;;917.43;;
21213;SDS011;10764;50.850;2.904;2024-02-28T05:07:15;981.58;;;900.65;;
21213;SDS011;10764;50.850;2.904;2024-02-28T05:09:42;860.63;;;788.30;;
21213;SDS011;10764;50.850;2.904;2024-02-28T05:12:09;1097.78;;;994.55;;
21213;SDS011;10764;50.850;2.904;2024-02-28T05:14:38;1081.65;;;990.78;;
21213;SDS011;10764;50.850;2.904;2024-02-28T05:17:05;1081.88;;;989.90;;
21213;SDS011;10764;50.850;2.904;2024-02-28T05:19:32;1085.72;;;992.28;;
21213;SDS011;10764;50.850;2.904;2024-02-28T05:21:59;1116.65;;;999.90;;
21213;SDS011;10764;50.850;2.904;2024-02-28T05:24:27;1117.25;;;999.90;;
21213;SDS011;10764;50.850;2.904;2024-02-28T05:26:54;1103.15;;;999.90;;
21213;SDS011;10764;50.850;2.904;2024-02-28T05:29:21;1103.65;;;999.90;;
21213;SDS011;10764;50.850;2.904;2024-02-28T05:31:47;1105.22;;;999.90;;
21213;SDS011;10764;50.850;2.904;2024-02-28T05:34:15;1109.25;;;999.90;;
21213;SDS011;10764;50.850;2.904;2024-02-28T05:36:42;1102.10;;;999.75;;
21213;SDS011;10764;50.850;2.904;2024-02-28T05:39:09;1072.03;;;982.17;;
21213;SDS011;10764;50.850;2.904;2024-02-28T05:41:37;1080.20;;;990.03;;
21213;SDS011;10764;50.850;2.904;2024-02-28T05:44:03;1093.60;;;996.63;;
21213;SDS011;10764;50.850;2.904;2024-02-28T05:46:30;1093.70;;;991.37;;
21213;SDS011;10764;50.850;2.904;2024-02-28T05:48:57;1087.15;;;991.42;;
21213;SDS011;10764;50.850;2.904;2024-02-28T05:51:24;1079.63;;;986.10;;
21213;SDS011;10764;50.850;2.904;2024-02-28T05:53:51;1079.00;;;985.83;;
21213;SDS011;10764;50.850;2.904;2024-02-28T05:56:18;1075.60;;;984.50;;
21213;SDS011;10764;50.850;2.904;2024-02-28T05:58:46;1079.22;;;987.63;;
21213;SDS011;10764;50.850;2.904;2024-02-28T06:01:17;1103.30;;;997.60;;
21213;SDS011;10764;50.850;2.904;2024-02-28T06:03:46;1103.60;;;997.28;;
21213;SDS011;10764;50.850;2.904;2024-02-28T06:06:14;1116.45;;;999.90;;
21213;SDS011;10764;50.850;2.904;2024-02-28T06:08:42;1114.30;;;995.60;;
21213;SDS011;10764;50.850;2.904;2024-02-28T06:11:09;1114.57;;;996.88;;
21213;SDS011;10764;50.850;2.904;2024-02-28T06:13:37;1114.80;;;997.58;;
21213;SDS011;10764;50.850;2.904;2024-02-28T06:16:06;1120.95;;;999.90;;
21213;SDS011;10764;50.850;2.904;2024-02-28T06:18:33;1112.50;;;998.37;;
21213;SDS011;10764;50.850;2.904;2024-02-28T06:21:00;1116.85;;;999.90;;
21213;SDS011;10764;50.850;2.904;2024-02-28T06:23:28;1122.35;;;999.90;;
21213;SDS011;10764;50.850;2.904;2024-02-28T06:25:58;1121.20;;;999.90;;
21213;SDS011;10764;50.850;2.904;2024-02-28T06:28:25;1119.53;;;999.63;;
21213;SDS011;10764;50.850;2.904;2024-02-28T06:30:52;1120.63;;;999.85;;
21213;SDS011;10764;50.850;2.904;2024-02-28T06:33:19;1118.07;;;999.90;;
21213;SDS011;10764;50.850;2.904;2024-02-28T06:35:46;1114.70;;;999.90;;
21213;SDS011;10764;50.850;2.904;2024-02-28T06:38:13;1113.35;;;999.90;;
21213;SDS011;10764;50.850;2.904;2024-02-28T06:40:40;1121.45;;;999.90;;
21213;SDS011;10764;50.850;2.904;2024-02-28T06:43:07;1114.22;;;999.90;;
21213;SDS011;10764;50.850;2.904;2024-02-28T06:45:34;1122.97;;;999.25;;
21213;SDS011;10764;50.850;2.904;2024-02-28T06:48:03;1118.03;;;999.90;;
21213;SDS011;10764;50.850;2.904;2024-02-28T06:50:30;1120.07;;;999.90;;
21213;SDS011;10764;50.850;2.904;2024-02-28T06:52:57;1122.10;;;999.90;;
21213;SDS011;10764;50.850;2.904;2024-02-28T06:55:24;1125.35;;;999.90;;
21213;SDS011;10764;50.850;2.904;2024-02-28T06:57:51;1126.10;;;999.90;;
21213;SDS011;10764;50.850;2.904;2024-02-28T07:00:18;1121.18;;;999.90;;
21213;SDS011;10764;50.850;2.904;2024-02-28T07:02:46;1120.93;;;999.90;;
21213;SDS011;10764;50.850;2.904;2024-02-28T07:05:14;1124.03;;;999.90;;
21213;SDS011;10764;50.850;2.904;2024-02-28T07:07:42;1122.93;;;999.90;;
21213;SDS011;10764;50.850;2.904;2024-02-28T07:10:09;1122.35;;;999.90;;
21213;SDS011;10764;50.850;2.904;2024-02-28T07:12:37;1120.20;;;999.90;;
21213;SDS011;10764;50.850;2.904;2024-02-28T07:15:04;1129.03;;;999.90;;
21213;SDS011;10764;50.850;2.904;2024-02-28T07:17:31;1108.50;;;999.90;;
21213;SDS011;10764;50.850;2.904;2024-02-28T07:19:58;1108.72;;;999.90;;
21213;SDS011;10764;50.850;2.904;2024-02-28T07:22:26;1114.32;;;999.90;;
21213;SDS011;10764;50.850;2.904;2024-02-28T07:24:53;1112.45;;;999.90;;
21213;SDS011;10764;50.850;2.904;2024-02-28T07:27:25;1111.15;;;999.90;;
21213;SDS011;10764;50.850;2.904;2024-02-28T07:29:52;1112.70;;;999.90;;
21213;SDS011;10764;50.850;2.904;2024-02-28T07:32:19;1115.18;;;999.90;;
21213;SDS011;10764;50.850;2.904;2024-02-28T07:34:46;1121.80;;;999.90;;
21213;SDS011;10764;50.850;2.904;2024-02-28T07:37:13;1125.30;;;999.90;;
21213;SDS011;10764;50.850;2.904;2024-02-28T07:39:41;1127.57;;;999.90;;
21213;SDS011;10764;50.850;2.904;2024-02-28T07:42:08;1125.43;;;999.90;;
21213;SDS011;10764;50.850;2.904;2024-02-28T07:44:36;1128.50;;;999.90;;
21213;SDS011;10764;50.850;2.904;2024-02-28T07:47:02;1132.78;;;999.90;;
21213;SDS011;10764;50.850;2.904;2024-02-28T07:49:32;1165.07;;;999.90;;
21213;SDS011;10764;50.850;2.904;2024-02-28T07:51:59;1171.18;;;999.90;;
21213;SDS011;10764;50.850;2.904;2024-02-28T07:54:27;1159.13;;;987.75;;
21213;SDS011;10764;50.850;2.904;2024-02-28T07:56:54;1185.53;;;999.90;;
21213;SDS011;10764;50.850;2.904;2024-02-28T07:59:21;1185.22;;;999.90;;
21213;SDS011;10764;50.850;2.904;2024-02-28T08:01:50;1192.78;;;999.90;;
21213;SDS011;10764;50.850;2.904;2024-02-28T08:04:19;1191.05;;;999.90;;
21213;SDS011;10764;50.850;2.904;2024-02-28T08:14:18;1200.30;;;999.90;;
21213;SDS011;10764;50.850;2.904;2024-02-28T08:16:45;1202.63;;;999.90;;
21213;SDS011;10764;50.850;2.904;2024-02-28T08:19:12;1197.00;;;999.90;;
21213;SDS011;10764;50.850;2.904;2024-02-28T08:21:39;1198.05;;;999.90;;
21213;SDS011;10764;50.850;2.904;2024-02-28T08:24:06;1204.47;;;999.90;;
21213;SDS011;10764;50.850;2.904;2024-02-28T08:26:33;1203.45;;;999.90;;
21213;SDS011;10764;50.850;2.904;2024-02-28T08:29:00;1205.55;;;999.90;;
21213;SDS011;10764;50.850;2.904;2024-02-28T08:31:28;1199.63;;;999.90;;
21213;SDS011;10764;50.850;2.904;2024-02-28T08:33:55;1202.03;;;999.90;;
21213;SDS011;10764;50.850;2.904;2024-02-28T08:36:22;1200.13;;;999.90;;
21213;SDS011;10764;50.850;2.904;2024-02-28T08:38:49;1197.82;;;999.90;;
21213;SDS011;10764;50.850;2.904;2024-02-28T08:41:17;1202.53;;;999.90;;
21213;SDS011;10764;50.850;2.904;2024-02-28T08:43:44;1196.43;;;999.90;;
21213;SDS011;10764;50.850;2.904;2024-02-28T08:46:18;1196.63;;;999.90;;
21213;SDS011;10764;50.850;2.904;2024-02-28T08:48:46;1198.63;;;999.90;;
21213;SDS011;10764;50.850;2.904;2024-02-28T08:51:13;1201.47;;;999.90;;
21213;SDS011;10764;50.850;2.904;2024-02-28T08:53:40;1202.57;;;999.90;;
21213;SDS011;10764;50.850;2.904;2024-02-28T08:56:07;1199.78;;;999.90;;
21213;SDS011;10764;50.850;2.904;2024-02-28T08:58:34;1199.13;;;999.90;;
21213;SDS011;10764;50.850;2.904;2024-02-28T09:01:03;1200.10;;;999.90;;
21213;SDS011;10764;50.850;2.904;2024-02-28T09:03:31;1192.90;;;999.90;;
21213;SDS011;10764;50.850;2.904;2024-02-28T09:05:58;1193.20;;;999.90;;
21213;SDS011;10764;50.850;2.904;2024-02-28T09:08:25;1196.30;;;999.90;;
21213;SDS011;10764;50.850;2.904;2024-02-28T09:10:52;1196.30;;;999.90;;
21213;SDS011;10764;50.850;2.904;2024-02-28T09:13:19;1196.80;;;999.90;;
21213;SDS011;10764;50.850;2.904;2024-02-28T09:15:46;1192.10;;;999.90;;
21213;SDS011;10764;50.850;2.904;2024-02-28T09:18:13;1188.82;;;999.90;;
21213;SDS011;10764;50.850;2.904;2024-02-28T09:20:41;1193.50;;;999.90;;
21213;SDS011;10764;50.850;2.904;2024-02-28T09:23:08;1192.40;;;999.90;;
21213;SDS011;10764;50.850;2.904;2024-02-28T09:25:35;1195.00;;;999.90;;
21213;SDS011;10764;50.850;2.904;2024-02-28T09:28:02;1193.55;;;999.90;;
21213;SDS011;10764;50.850;2.904;2024-02-28T09:30:30;1197.70;;;999.90;;
21213;SDS011;10764;50.850;2.904;2024-02-28T09:33:11;1194.10;;;999.90;;
21213;SDS011;10764;50.850;2.904;2024-02-28T09:35:38;1194.60;;;999.90;;
21213;SDS011;10764;50.850;2.904;2024-02-28T09:38:09;1191.67;;;999.90;;
21213;SDS011;10764;50.850;2.904;2024-02-28T09:40:39;1192.60;;;999.90;;
21213;SDS011;10764;50.850;2.904;2024-02-28T09:43:06;1193.95;;;999.90;;
21213;SDS011;10764;50.850;2.904;2024-02-28T09:45:41;1192.55;;;999.90;;
21213;SDS011;10764;50.850;2.904;2024-02-28T09:48:11;1189.47;;;999.90;;
21213;SDS011;10764;50.850;2.904;2024-02-28T09:50:39;1189.70;;;999.90;;
21213;SDS011;10764;50.850;2.904;2024-02-28T09:53:06;1191.18;;;999.90;;
21213;SDS011;10764;50.850;2.904;2024-02-28T09:55:36;1190.33;;;999.90;;
21213;SDS011;10764;50.850;2.904;2024-02-28T09:58:04;1188.63;;;999.90;;
21213;SDS011;10764;50.850;2.904;2024-02-28T10:00:32;1193.05;;;999.90;;
21213;SDS011;10764;50.850;2.904;2024-02-28T10:03:00;1189.00;;;999.90;;
21213;SDS011;10764;50.850;2.904;2024-02-28T10:05:27;1191.22;;;999.90;;
21213;SDS011;10764;50.850;2.904;2024-02-28T10:07:55;1191.57;;;999.90;;
21213;SDS011;10764;50.850;2.904;2024-02-28T10:10:22;1190.55;;;999.90;;
21213;SDS011;10764;50.850;2.904;2024-02-28T10:12:49;1191.47;;;999.90;;
21213;SDS011;10764;50.850;2.904;2024-02-28T10:15:17;1189.45;;;999.90;;
21213;SDS011;10764;50.850;2.904;2024-02-28T10:17:43;1192.38;;;999.90;;
21213;SDS011;10764;50.850;2.904;2024-02-28T10:20:10;1185.80;;;999.90;;
21213;SDS011;10764;50.850;2.904;2024-02-28T10:22:38;1213.18;;;999.90;;
21213;SDS011;10764;50.850;2.904;2024-02-28T10:25:05;1226.78;;;999.90;;
21213;SDS011;10764;50.850;2.904;2024-02-28T10:27:33;1233.22;;;999.90;;
21213;SDS011;10764;50.850;2.904;2024-02-28T10:30:01;1236.93;;;999.90;;
21213;SDS011;10764;50.850;2.904;2024-02-28T10:32:32;1237.50;;;999.90;;
21213;SDS011;10764;50.850;2.904;2024-02-28T10:35:02;1232.97;;;999.90;;
21213;SDS011;10764;50.850;2.904;2024-02-28T10:37:30;1234.22;;;999.90;;
21213;SDS011;10764;50.850;2.904;2024-02-28T10:39:59;1239.55;;;999.90;;
21213;SDS011;10764;50.850;2.904;2024-02-28T10:42:29;1236.90;;;999.90;;
21213;SDS011;10764;50.850;2.904;2024-02-28T10:44:57;1187.85;;;999.90;;
21213;SDS011;10764;50.850;2.904;2024-02-28T10:47:45;1203.45;;;999.90;;
21213;SDS011;10764;50.850;2.904;2024-02-28T10:50:14;1218.30;;;999.90;;
21213;SDS011;10764;50.850;2.904;2024-02-28T10:52:43;1218.75;;;999.90;;
21213;SDS011;10764;50.850;2.904;2024-02-28T10:55:13;1212.28;;;999.90;;
21213;SDS011;10764;50.850;2.904;2024-02-28T10:57:40;1208.03;;;999.90;;
21213;SDS011;10764;50.850;2.904;2024-02-28T11:00:08;1215.18;;;999.90;;
21213;SDS011;10764;50.850;2.904;2024-02-28T11:02:37;1217.45;;;999.90;;
21213;SDS011;10764;50.850;2.904;2024-02-28T11:05:04;1217.30;;;999.90;;
21213;SDS011;10764;50.850;2.904;2024-02-28T11:07:32;1215.30;;;999.90;;
21213;SDS011;10764;50.850;2.904;2024-02-28T11:10:04;1217.80;;;999.90;;
21213;SDS011;10764;50.850;2.904;2024-02-28T11:12:32;1220.37;;;999.90;;
21213;SDS011;10764;50.850;2.904;2024-02-28T11:15:00;1217.30;;;999.90;;
21213;SDS011;10764;50.850;2.904;2024-02-28T11:17:29;1218.93;;;999.90;;
21213;SDS011;10764;50.850;2.904;2024-02-28T11:19:57;1224.40;;;999.90;;
21213;SDS011;10764;50.850;2.904;2024-02-28T11:22:28;1224.43;;;999.90;;
21213;SDS011;10764;50.850;2.904;2024-02-28T11:24:56;1211.53;;;999.90;;
21213;SDS011;10764;50.850;2.904;2024-02-28T11:27:22;1211.30;;;999.90;;
21213;SDS011;10764;50.850;2.904;2024-02-28T11:29:50;1213.22;;;999.90;;
21213;SDS011;10764;50.850;2.904;2024-02-28T11:32:17;1208.35;;;999.90;;
21213;SDS011;10764;50.850;2.904;2024-02-28T11:34:44;1209.25;;;999.90;;
21213;SDS011;10764;50.850;2.904;2024-02-28T11:37:11;1208.90;;;999.90;;
21213;SDS011;10764;50.850;2.904;2024-02-28T11:39:39;1219.22;;;999.90;;
21213;SDS011;10764;50.850;2.904;2024-02-28T11:42:12;1240.97;;;999.90;;
21213;SDS011;10764;50.850;2.904;2024-02-28T11:44:40;1233.22;;;999.90;;
21213;SDS011;10764;50.850;2.904;2024-02-28T11:47:08;1223.68;;;999.90;;
21213;SDS011;10764;50.850;2.904;2024-02-28T11:49:39;1228.30;;;999.90;;
21213;SDS011;10764;50.850;2.904;2024-02-28T11:52:06;1228.13;;;999.90;;
21213;SDS011;10764;50.850;2.904;2024-02-28T11:54:34;1201.80;;;999.90;;
21213;SDS011;10764;50.850;2.904;2024-02-28T11:57:01;1209.78;;;999.90;;
21213;SDS011;10764;50.850;2.904;2024-02-28T11:59:28;1210.97;;;999.90;;
21213;SDS011;10764;50.850;2.904;2024-02-28T12:01:55;1211.13;;;999.90;;
21213;SDS011;10764;50.850;2.904;2024-02-28T12:04:25;1203.07;;;999.90;;
21213;SDS011;10764;50.850;2.904;2024-02-28T12:06:52;1199.43;;;999.90;;
21213;SDS011;10764;50.850;2.904;2024-02-28T12:09:19;1203.45;;;999.90;;
21213;SDS011;10764;50.850;2.904;2024-02-28T12:12:00;1202.67;;;999.90;;
21213;SDS011;10764;50.850;2.904;2024-02-28T12:14:31;1216.93;;;999.90;;
21213;SDS011;10764;50.850;2.904;2024-02-28T12:16:59;1213.60;;;999.90;;
21213;SDS011;10764;50.850;2.904;2024-02-28T12:19:27;1212.38;;;999.90;;
21213;SDS011;10764;50.850;2.904;2024-02-28T12:21:54;1208.90;;;999.90;;
21213;SDS011;10764;50.850;2.904;2024-02-28T12:24:21;1207.40;;;999.90;;
21213;SDS011;10764;50.850;2.904;2024-02-28T12:26:48;1207.30;;;999.90;;
21213;SDS011;10764;50.850;2.904;2024-02-28T12:29:15;1207.73;;;999.90;;
21213;SDS011;10764;50.850;2.904;2024-02-28T12:31:42;1205.70;;;999.90;;
21213;SDS011;10764;50.850;2.904;2024-02-28T12:34:09;1205.07;;;999.90;;
21213;SDS011;10764;50.850;2.904;2024-02-28T12:36:36;1204.13;;;999.90;;
21213;SDS011;10764;50.850;2.904;2024-02-28T12:39:04;1204.93;;;999.90;;
21213;SDS011;10764;50.850;2.904;2024-02-28T12:41:32;1206.38;;;999.90;;
21213;SDS011;10764;50.850;2.904;2024-02-28T12:43:59;1208.15;;;999.90;;
21213;SDS011;10764;50.850;2.904;2024-02-28T12:46:26;1211.73;;;999.90;;
21213;SDS011;10764;50.850;2.904;2024-02-28T12:48:53;1205.88;;;999.90;;
21213;SDS011;10764;50.850;2.904;2024-02-28T12:51:21;1204.28;;;999.90;;
21213;SDS011;10764;50.850;2.904;2024-02-28T12:54:08;1209.63;;;999.90;;
21213;SDS011;10764;50.850;2.904;2024-02-28T12:56:43;1208.63;;;999.90;;
21213;SDS011;10764;50.850;2.904;2024-02-28T12:59:10;1208.55;;;999.90;;
21213;SDS011;10764;50.850;2.904;2024-02-28T13:01:38;1205.97;;;999.90;;
21213;SDS011;10764;50.850;2.904;2024-02-28T13:04:31;1210.03;;;999.90;;
21213;SDS011;10764;50.850;2.904;2024-02-28T13:06:59;1215.85;;;999.90;;
21213;SDS011;10764;50.850;2.904;2024-02-28T13:09:26;1214.13;;;999.90;;
21213;SDS011;10764;50.850;2.904;2024-02-28T13:11:53;1212.72;;;999.90;;
21213;SDS011;10764;50.850;2.904;2024-02-28T13:14:20;1218.93;;;999.90;;
21213;SDS011;10764;50.850;2.904;2024-02-28T13:16:48;1216.88;;;999.90;;
21213;SDS011;10764;50.850;2.904;2024-02-28T13:19:15;1215.72;;;999.90;;
21213;SDS011;10764;50.850;2.904;2024-02-28T13:21:42;1215.93;;;999.90;;
21213;SDS011;10764;50.850;2.904;2024-02-28T13:24:09;1217.22;;;999.90;;
21213;SDS011;10764;50.850;2.904;2024-02-28T13:26:36;1215.07;;;999.90;;
21213;SDS011;10764;50.850;2.904;2024-02-28T13:29:03;1209.05;;;999.90;;
21213;SDS011;10764;50.850;2.904;2024-02-28T13:31:31;1207.35;;;999.90;;
21213;SDS011;10764;50.850;2.904;2024-02-28T13:33:57;1207.60;;;999.90;;
21213;SDS011;10764;50.850;2.904;2024-02-28T13:36:24;1201.85;;;999.90;;
21213;SDS011;10764;50.850;2.904;2024-02-28T13:38:58;1200.25;;;999.90;;
21213;SDS011;10764;50.850;2.904;2024-02-28T13:41:25;1207.57;;;999.90;;
21213;SDS011;10764;50.850;2.904;2024-02-28T13:43:52;1202.53;;;999.90;;
21213;SDS011;10764;50.850;2.904;2024-02-28T13:46:19;1206.15;;;999.90;;
21213;SDS011;10764;50.850;2.904;2024-02-28T13:48:49;1207.28;;;999.90;;
21213;SDS011;10764;50.850;2.904;2024-02-28T13:51:16;1205.88;;;999.90;;
21213;SDS011;10764;50.850;2.904;2024-02-28T13:53:43;1201.70;;;999.90;;
21213;SDS011;10764;50.850;2.904;2024-02-28T13:56:11;1197.13;;;999.90;;